createdAt,value
2022-11-28T00:01:47.095Z,1.76
2022-11-28T00:04:16.367Z,1.74
2022-11-28T00:06:50.157Z,1.77
2022-11-28T00:09:21.585Z,1.76
2022-11-28T00:11:50.919Z,1.77
2022-11-28T00:14:20.638Z,1.73
2022-11-28T00:16:49.934Z,1.68
2022-11-28T00:19:18.630Z,1.70
2022-11-28T00:21:47.557Z,1.74
2022-11-28T00:24:16.823Z,1.70
2022-11-28T00:26:45.735Z,1.68
2022-11-28T00:29:14.602Z,1.70
2022-11-28T00:31:44.212Z,1.71
2022-11-28T00:34:15.542Z,1.70
2022-11-28T00:36:47.011Z,1.71
2022-11-28T00:39:17.210Z,1.63
2022-11-28T00:41:46.324Z,1.71
2022-11-28T00:44:15.526Z,1.71
2022-11-28T00:46:44.317Z,1.67
2022-11-28T00:49:13.624Z,1.69
2022-11-28T00:51:42.285Z,1.73
2022-11-28T00:54:11.047Z,1.78
2022-11-28T00:56:40.611Z,1.78
2022-11-28T00:59:09.592Z,1.82
2022-11-28T01:01:42.664Z,1.84
2022-11-28T01:04:14.856Z,1.86
2022-11-28T01:06:52.957Z,1.83
2022-11-28T01:09:24.265Z,1.81
2022-11-28T01:11:55.126Z,1.79
2022-11-28T01:14:25.968Z,1.80
2022-11-28T01:16:54.789Z,1.79
2022-11-28T01:19:23.669Z,1.80
2022-11-28T01:21:52.652Z,1.80
2022-11-28T01:24:21.237Z,1.76
2022-11-28T01:26:49.862Z,1.72
2022-11-28T01:29:18.467Z,1.76
2022-11-28T01:31:47.269Z,1.81
2022-11-28T01:34:16.921Z,1.84
2022-11-28T01:36:45.494Z,1.81
2022-11-28T01:39:15.917Z,1.84
2022-11-28T01:41:44.550Z,1.77
2022-11-28T01:44:15.881Z,1.74
2022-11-28T01:46:44.776Z,1.76
2022-11-28T01:49:19.176Z,1.75
2022-11-28T01:52:07.997Z,1.73
2022-11-28T01:54:37.979Z,1.75
2022-11-28T01:57:11.349Z,1.73
2022-11-28T01:59:49.420Z,1.75
2022-11-28T02:02:57.655Z,1.69
2022-11-28T02:05:26.317Z,1.71
2022-11-28T02:07:55.171Z,1.66
2022-11-28T02:10:51.948Z,1.63
2022-11-28T02:13:47.369Z,1.59
2022-11-28T02:16:50.727Z,1.43
2022-11-28T02:19:59.837Z,1.40
2022-11-28T02:22:46.516Z,1.38
2022-11-28T02:25:32.201Z,1.46
2022-11-28T02:28:41.164Z,1.45
2022-11-28T02:31:33.783Z,1.48
2022-11-28T02:34:25.584Z,1.50
2022-11-28T02:37:09.291Z,1.51
2022-11-28T02:40:10.251Z,1.48
2022-11-28T02:43:03.921Z,1.51
2022-11-28T02:45:51.031Z,1.51
2022-11-28T02:49:00.046Z,1.41
2022-11-28T02:51:41.016Z,1.36
2022-11-28T02:54:14.938Z,1.45
2022-11-28T02:56:51.718Z,1.47
2022-11-28T02:59:38.570Z,1.48
2022-11-28T03:02:27.851Z,1.46
2022-11-28T03:05:08.805Z,1.43
2022-11-28T03:07:55.947Z,1.42
2022-11-28T03:10:45.446Z,1.38
2022-11-28T03:13:47.440Z,1.33
2022-11-28T03:16:39.213Z,1.25
2022-11-28T03:19:22.725Z,1.14
2022-11-28T03:21:54.098Z,1.10
2022-11-28T03:24:34.288Z,1.09
2022-11-28T03:27:24.043Z,1.12
2022-11-28T03:30:08.988Z,1.12
2022-11-28T03:32:40.633Z,1.15
2022-11-28T03:35:19.280Z,1.12
2022-11-28T03:38:22.582Z,1.13
2022-11-28T03:40:56.658Z,1.15
2022-11-28T03:43:33.203Z,1.11
2022-11-28T03:46:08.839Z,1.12
2022-11-28T03:48:46.666Z,1.10
2022-11-28T03:51:26.014Z,1.09
2022-11-28T03:54:11.439Z,1.07
2022-11-28T03:56:52.364Z,1.06
2022-11-28T03:59:45.067Z,1.05
2022-11-28T04:02:30.553Z,1.04
2022-11-28T04:05:28.592Z,0.99
2022-11-28T04:08:19.518Z,0.98
2022-11-28T04:11:09.461Z,1.02
2022-11-28T04:14:08.650Z,1.04
2022-11-28T04:17:29.564Z,1.02
2022-11-28T04:20:18.794Z,1.05
2022-11-28T04:23:01.343Z,1.05
2022-11-28T04:25:34.804Z,1.04
2022-11-28T04:28:14.957Z,1.00
2022-11-28T04:30:45.961Z,0.99
2022-11-28T04:33:17.684Z,0.99
2022-11-28T04:35:51.980Z,1.03
2022-11-28T04:38:25.115Z,1.03
2022-11-28T04:41:17.455Z,1.08
2022-11-28T04:44:03.633Z,1.08
2022-11-28T04:46:40.717Z,1.06
2022-11-28T04:49:10.645Z,1.10
2022-11-28T04:52:20.509Z,1.13
2022-11-28T04:55:29.037Z,1.10
2022-11-28T04:58:22.981Z,1.18
2022-11-28T05:00:54.577Z,1.24
2022-11-28T05:03:28.557Z,1.23
2022-11-28T05:05:57.578Z,1.21
2022-11-28T05:08:26.243Z,1.27
2022-11-28T05:10:55.152Z,1.28
2022-11-28T05:13:23.815Z,1.30
2022-11-28T05:15:52.726Z,1.29
2022-11-28T05:18:21.307Z,1.31
2022-11-28T05:20:50.044Z,1.32
2022-11-28T05:23:20.391Z,1.36
2022-11-28T05:25:49.037Z,1.35
2022-11-28T05:28:17.726Z,1.26
2022-11-28T05:30:58.526Z,1.34
2022-11-28T05:33:28.739Z,1.37
2022-11-28T05:36:05.467Z,1.22
2022-11-28T05:38:36.438Z,1.30
2022-11-28T05:41:05.357Z,1.27
2022-11-28T05:43:34.299Z,1.26
2022-11-28T05:46:06.810Z,1.23
2022-11-28T05:48:36.034Z,1.13
2022-11-28T05:51:06.004Z,1.16
2022-11-28T05:53:35.390Z,1.24
2022-11-28T05:56:13.912Z,1.15
2022-11-28T05:58:42.931Z,1.03
2022-11-28T06:01:14.149Z,1.13
2022-11-28T06:03:43.368Z,1.15
2022-11-28T06:06:19.691Z,1.18
2022-11-28T06:08:51.651Z,1.21
2022-11-28T06:11:23.430Z,1.19
2022-11-28T06:13:52.745Z,1.17
2022-11-28T06:16:25.533Z,1.18
2022-11-28T06:19:00.150Z,1.16
2022-11-28T06:21:30.770Z,1.18
2022-11-28T06:24:00.419Z,1.15
2022-11-28T06:26:29.957Z,1.29
2022-11-28T06:28:58.681Z,1.30
2022-11-28T06:31:30.273Z,1.34
2022-11-28T06:33:59.565Z,1.32
2022-11-28T06:36:28.208Z,1.39
2022-11-28T06:38:56.930Z,1.39
2022-11-28T06:41:25.642Z,1.47
2022-11-28T06:43:55.372Z,1.46
2022-11-28T06:46:24.325Z,1.51
2022-11-28T06:48:53.538Z,1.42
2022-11-28T06:51:22.409Z,1.48
2022-11-28T06:53:51.322Z,1.52
2022-11-28T06:56:21.131Z,1.55
2022-11-28T06:58:58.674Z,1.59
2022-11-28T07:01:31.172Z,1.64
2022-11-28T07:04:01.533Z,1.65
2022-11-28T07:06:30.493Z,1.69
2022-11-28T07:08:59.686Z,1.75
2022-11-28T07:11:31.774Z,1.80
2022-11-28T07:14:02.872Z,1.86
2022-11-28T07:16:33.715Z,1.85
2022-11-28T07:19:03.247Z,1.87
2022-11-28T07:21:32.530Z,2.05
2022-11-28T07:24:01.283Z,2.10
2022-11-28T07:26:30.936Z,2.17
2022-11-28T07:29:00.298Z,2.16
2022-11-28T07:31:32.408Z,2.08
2022-11-28T07:34:03.744Z,2.16
2022-11-28T07:36:32.511Z,2.29
2022-11-28T07:39:03.720Z,2.34
2022-11-28T07:41:32.494Z,2.35
2022-11-28T07:44:03.597Z,2.36
2022-11-28T07:46:34.353Z,2.37
2022-11-28T07:49:04.367Z,2.44
2022-11-28T07:51:34.324Z,2.31
2022-11-28T07:54:05.065Z,2.40
2022-11-28T07:57:10.779Z,2.33
2022-11-28T07:59:25.862Z,2.35
2022-11-28T08:01:54.560Z,2.30
2022-11-28T08:04:23.403Z,2.32
2022-11-28T08:06:52.743Z,2.36
2022-11-28T08:09:21.615Z,2.39
2022-11-28T08:11:52.708Z,2.29
2022-11-28T08:14:21.371Z,2.41
2022-11-28T08:16:50.186Z,2.38
2022-11-28T08:19:23.058Z,2.43
2022-11-28T08:21:53.522Z,2.51
2022-11-28T08:24:22.139Z,2.47
2022-11-28T08:26:50.895Z,2.53
2022-11-28T08:29:19.629Z,2.57
2022-11-28T08:31:48.422Z,2.68
2022-11-28T08:34:17.037Z,2.51
2022-11-28T08:36:47.498Z,2.60
2022-11-28T08:39:24.826Z,2.72
2022-11-28T08:41:59.128Z,2.78
2022-11-28T08:44:30.386Z,2.79
2022-11-28T08:46:59.385Z,2.88
2022-11-28T08:49:28.026Z,2.85
2022-11-28T08:51:56.621Z,2.73
2022-11-28T08:54:25.297Z,2.83
2022-11-28T08:56:53.895Z,2.85
2022-11-28T08:59:22.681Z,2.81
2022-11-28T09:01:55.176Z,2.73
2022-11-28T09:04:24.303Z,2.85
2022-11-28T09:06:53.094Z,2.88
2022-11-28T09:09:22.093Z,3.01
2022-11-28T09:11:51.023Z,2.99
2022-11-28T09:14:19.758Z,3.05
2022-11-28T09:16:48.664Z,3.02
2022-11-28T09:19:17.408Z,3.05
2022-11-28T09:21:46.057Z,3.02
2022-11-28T09:24:14.667Z,2.98
2022-11-28T09:26:43.398Z,3.00
2022-11-28T09:29:12.022Z,2.78
2022-11-28T09:31:45.823Z,2.70
2022-11-28T09:34:16.328Z,2.78
2022-11-28T09:36:45.056Z,2.76
2022-11-28T09:39:13.660Z,2.81
2022-11-28T09:42:22.419Z,2.86
2022-11-28T09:44:58.365Z,2.86
2022-11-28T09:47:35.057Z,2.86
2022-11-28T09:50:11.018Z,2.83
2022-11-28T09:53:01.158Z,2.82
2022-11-28T09:55:44.471Z,3.00
2022-11-28T09:58:39.997Z,2.98
2022-11-28T10:01:19.590Z,2.80
2022-11-28T10:04:52.338Z,2.82
2022-11-28T10:07:43.153Z,2.89
2022-11-28T10:10:38.149Z,2.92
2022-11-28T10:14:05.976Z,3.02
2022-11-28T10:16:54.905Z,3.04
2022-11-28T10:20:04.752Z,2.98
2022-11-28T10:22:52.191Z,3.32
2022-11-28T10:25:37.485Z,3.22
2022-11-28T10:28:13.687Z,3.24
2022-11-28T10:30:48.649Z,3.38
2022-11-28T10:33:31.969Z,3.60
2022-11-28T10:36:02.488Z,3.28
2022-11-28T10:38:34.996Z,2.98
2022-11-28T10:41:29.009Z,2.97
2022-11-28T10:44:21.504Z,3.08
2022-11-28T10:47:06.239Z,3.14
2022-11-28T10:49:49.038Z,3.07
2022-11-28T10:52:29.579Z,3.14
2022-11-28T10:55:51.866Z,3.16
2022-11-28T10:59:07.320Z,3.17
2022-11-28T11:01:43.775Z,3.24
2022-11-28T11:04:29.333Z,3.12
2022-11-28T11:07:29.257Z,3.07
2022-11-28T11:10:18.229Z,3.16
2022-11-28T11:12:50.562Z,3.12
2022-11-28T11:15:32.918Z,3.19
2022-11-28T11:18:19.942Z,3.17
2022-11-28T11:20:48.630Z,3.23
2022-11-28T11:23:21.409Z,3.15
2022-11-28T11:25:58.517Z,3.19
2022-11-28T11:28:41.239Z,3.23
2022-11-28T11:31:33.628Z,3.27
2022-11-28T11:34:13.200Z,3.28
2022-11-28T11:36:41.812Z,2.99
2022-11-28T11:39:11.058Z,3.02
2022-11-28T11:41:50.167Z,2.86
2022-11-28T11:44:34.986Z,2.89
2022-11-28T11:47:09.361Z,3.00
2022-11-28T11:49:44.778Z,3.06
2022-11-28T11:52:13.628Z,3.09
2022-11-28T11:54:57.348Z,3.14
2022-11-28T11:57:36.054Z,3.24
2022-11-28T12:00:12.091Z,3.22
2022-11-28T12:02:56.947Z,3.19
2022-11-28T12:05:52.400Z,3.25
2022-11-28T12:08:50.388Z,3.42
2022-11-28T12:11:28.024Z,3.91
2022-11-28T12:14:13.598Z,4.10
2022-11-28T12:17:19.437Z,4.05
2022-11-28T12:20:32.169Z,3.93
2022-11-28T12:23:22.138Z,3.79
2022-11-28T12:26:08.827Z,3.61
2022-11-28T12:29:15.076Z,3.72
2022-11-28T12:32:08.982Z,3.67
2022-11-28T12:35:14.404Z,3.83
2022-11-28T12:38:18.124Z,3.88
2022-11-28T12:41:31.945Z,3.90
2022-11-28T12:44:52.678Z,3.70
2022-11-28T12:47:51.476Z,3.60
2022-11-28T12:51:01.166Z,3.55
2022-11-28T12:54:08.456Z,3.59
2022-11-28T12:56:43.027Z,3.75
2022-11-28T12:59:45.646Z,3.70
2022-11-28T13:02:27.122Z,3.75
2022-11-28T13:05:29.825Z,3.78
2022-11-28T13:08:25.929Z,3.88
2022-11-28T13:11:24.615Z,3.90
2022-11-28T13:14:16.235Z,3.81
2022-11-28T13:17:00.407Z,3.81
2022-11-28T13:20:04.067Z,3.74
2022-11-28T13:23:05.962Z,3.79
2022-11-28T13:25:48.376Z,3.63
2022-11-28T13:28:28.515Z,3.40
2022-11-28T13:31:12.670Z,3.24
2022-11-28T13:33:57.916Z,2.91
2022-11-28T13:40:26.982Z,2.64
2022-11-28T13:43:23.426Z,2.61
2022-11-28T13:45:53.036Z,2.55
2022-11-28T13:51:32.341Z,2.63
2022-11-28T13:54:20.047Z,2.63
2022-11-28T13:57:06.797Z,2.63
2022-11-28T13:59:36.930Z,2.62
2022-11-28T14:02:36.209Z,2.58
2022-11-28T14:05:15.619Z,2.57
2022-11-28T14:07:48.181Z,2.53
2022-11-28T14:10:28.954Z,2.45
2022-11-28T14:13:30.519Z,2.44
2022-11-28T14:17:09.741Z,2.41
2022-11-28T14:20:05.841Z,2.36
2022-11-28T14:23:08.660Z,2.38
2022-11-28T14:25:43.470Z,2.40
2022-11-28T14:29:49.113Z,2.48
2022-11-28T14:32:42.027Z,2.44
2022-11-28T14:35:54.439Z,2.42
2022-11-28T14:38:32.484Z,2.43
2022-11-28T14:41:14.630Z,2.40
2022-11-28T14:43:48.255Z,2.40
2022-11-28T14:46:27.318Z,2.38
2022-11-28T14:48:59.930Z,2.34
2022-11-28T14:52:09.895Z,2.30
2022-11-28T14:54:44.269Z,2.25
2022-11-28T14:57:19.770Z,2.26
2022-11-28T14:59:50.380Z,2.24
2022-11-28T15:02:49.123Z,2.21
2022-11-28T15:05:44.338Z,2.16
2022-11-28T15:08:38.419Z,2.11
2022-11-28T15:11:13.303Z,2.07
2022-11-28T15:14:09.284Z,2.08
2022-11-28T15:16:50.105Z,2.05
2022-11-28T15:19:45.425Z,2.02
2022-11-28T15:22:38.801Z,2.03
2022-11-28T15:25:27.105Z,1.99
2022-11-28T15:27:57.205Z,1.97
2022-11-28T15:30:27.153Z,1.94
2022-11-28T15:33:00.649Z,1.94
2022-11-28T15:35:29.507Z,1.96
2022-11-28T15:37:59.016Z,1.99
2022-11-28T15:40:36.427Z,2.01
2022-11-28T15:43:11.267Z,1.95
2022-11-28T15:45:44.672Z,1.98
2022-11-28T15:48:40.119Z,1.96
2022-11-28T15:51:33.134Z,1.96
2022-11-28T15:54:11.981Z,1.95
2022-11-28T15:56:57.874Z,2.00
2022-11-28T15:59:26.798Z,1.99
2022-11-28T16:02:02.261Z,1.93
2022-11-28T16:04:31.530Z,1.88
2022-11-28T16:07:02.317Z,1.92
2022-11-28T16:09:35.899Z,1.93
2022-11-28T16:12:13.800Z,1.91
2022-11-28T16:14:46.562Z,1.86
2022-11-28T16:17:23.509Z,1.85
2022-11-28T16:19:54.895Z,1.81
2022-11-28T16:22:32.804Z,1.83
2022-11-28T16:25:30.753Z,1.90
2022-11-28T16:28:00.082Z,1.88
2022-11-28T16:30:37.449Z,1.90
2022-11-28T16:33:52.459Z,1.83
2022-11-28T16:36:31.273Z,1.80
2022-11-28T16:39:16.486Z,1.83
2022-11-28T16:42:20.407Z,1.87
2022-11-28T16:44:49.074Z,1.85
2022-11-28T16:47:30.732Z,1.81
2022-11-28T16:50:23.756Z,1.81
2022-11-28T16:52:53.421Z,1.81
2022-11-28T16:55:34.284Z,1.74
2022-11-28T16:58:21.758Z,1.81
2022-11-28T17:01:03.425Z,1.80
2022-11-28T17:04:00.007Z,1.80
2022-11-28T17:06:37.176Z,1.77
2022-11-28T17:09:13.109Z,1.79
2022-11-28T17:11:50.670Z,1.77
2022-11-28T17:14:19.391Z,1.79
2022-11-28T17:16:48.144Z,1.72
2022-11-28T17:19:16.990Z,1.70
2022-11-28T17:21:54.258Z,1.70
2022-11-28T17:24:27.478Z,1.65
2022-11-28T17:26:56.330Z,1.73
2022-11-28T17:29:28.853Z,1.71
2022-11-28T17:31:59.113Z,1.73
2022-11-28T17:34:31.829Z,1.71
2022-11-28T17:37:02.430Z,1.76
2022-11-28T17:39:31.965Z,1.77
2022-11-28T17:42:01.097Z,1.77
2022-11-28T17:44:34.030Z,1.80
2022-11-28T17:47:03.532Z,1.81
2022-11-28T17:49:32.298Z,1.81
2022-11-28T17:52:00.968Z,1.78
2022-11-28T17:54:30.843Z,1.76
2022-11-28T17:56:59.518Z,1.80
2022-11-28T17:59:28.281Z,1.81
2022-11-28T18:01:57.027Z,1.78
2022-11-28T18:04:26.300Z,1.72
2022-11-28T18:06:55.230Z,1.76
2022-11-28T18:09:23.974Z,1.76
2022-11-28T18:11:53.163Z,1.77
2022-11-28T18:14:21.947Z,1.79
2022-11-28T18:16:50.680Z,1.82
2022-11-28T18:19:19.431Z,1.85
2022-11-28T18:21:49.984Z,1.81
2022-11-28T18:24:19.264Z,1.85
2022-11-28T18:26:47.997Z,1.86
2022-11-28T18:29:17.655Z,1.83
2022-11-28T18:31:46.486Z,1.87
2022-11-28T18:34:15.339Z,1.83
2022-11-28T18:36:44.366Z,1.88
2022-11-28T18:39:15.704Z,1.80
2022-11-28T18:41:46.050Z,1.69
2022-11-28T18:44:14.757Z,1.77
2022-11-28T18:46:43.491Z,1.84
2022-11-28T18:49:15.438Z,1.82
2022-11-28T18:51:44.084Z,1.81
2022-11-28T18:54:20.597Z,1.81
2022-11-28T18:56:50.430Z,1.82
2022-11-28T18:59:20.013Z,1.80
2022-11-28T19:01:49.405Z,1.81
2022-11-28T19:04:18.735Z,1.75
2022-11-28T19:06:51.887Z,1.75
2022-11-28T19:09:58.877Z,1.70
2022-11-28T19:12:28.147Z,1.77
2022-11-28T19:15:02.684Z,1.69
2022-11-28T19:17:31.859Z,1.71
2022-11-28T19:20:01.212Z,1.75
2022-11-28T19:22:31.121Z,1.78
2022-11-28T19:24:59.952Z,1.83
2022-11-28T19:27:29.129Z,1.85
2022-11-28T19:29:58.034Z,1.78
2022-11-28T19:32:36.606Z,1.74
2022-11-28T19:35:05.948Z,1.77
2022-11-28T19:37:34.733Z,1.80
2022-11-28T19:40:04.057Z,1.81
2022-11-28T19:42:33.410Z,1.80
2022-11-28T19:45:02.090Z,1.77
2022-11-28T19:47:31.502Z,1.80
2022-11-28T19:50:00.417Z,1.77
2022-11-28T19:52:29.123Z,1.80
2022-11-28T19:54:58.165Z,1.79
2022-11-28T19:57:26.917Z,1.77
2022-11-28T19:59:55.687Z,1.80
2022-11-28T20:02:24.398Z,1.80
2022-11-28T20:04:53.325Z,1.83
2022-11-28T20:07:22.156Z,1.82
2022-11-28T20:09:51.408Z,1.74
2022-11-28T20:12:20.522Z,1.76
2022-11-28T20:14:49.256Z,1.76
2022-11-28T20:17:17.925Z,1.74
2022-11-28T20:19:48.275Z,1.72
2022-11-28T20:22:17.656Z,1.73
2022-11-28T20:24:47.441Z,1.71
2022-11-28T20:27:16.273Z,1.80
2022-11-28T20:29:45.762Z,1.77
2022-11-28T20:32:14.944Z,1.80
2022-11-28T20:34:43.891Z,1.77
2022-11-28T20:37:12.729Z,1.80
2022-11-28T20:39:41.614Z,1.81
2022-11-28T20:42:11.146Z,1.79
2022-11-28T20:44:40.016Z,1.75
2022-11-28T20:47:11.227Z,1.76
2022-11-28T20:49:40.048Z,1.77
2022-11-28T20:52:08.810Z,1.79
2022-11-28T20:54:37.573Z,1.69
2022-11-28T20:57:20.755Z,1.69
2022-11-28T20:59:50.508Z,1.71
2022-11-28T21:02:19.152Z,1.74
2022-11-28T21:04:47.833Z,1.75
2022-11-28T21:07:16.686Z,1.79
2022-11-28T21:09:46.263Z,1.80
2022-11-28T21:12:20.690Z,1.82
2022-11-28T21:14:54.794Z,1.78
2022-11-28T21:17:23.451Z,1.79
2022-11-28T21:19:52.252Z,1.78
2022-11-28T21:22:21.144Z,1.76
2022-11-28T21:24:51.576Z,1.78
2022-11-28T21:27:20.464Z,1.80
2022-11-28T21:29:52.610Z,1.82
2022-11-28T21:32:21.300Z,1.79
2022-11-28T21:34:49.972Z,1.78
2022-11-28T21:37:18.613Z,1.81
2022-11-28T21:39:47.430Z,1.82
2022-11-28T21:42:20.554Z,1.82
2022-11-28T21:44:49.684Z,1.78
2022-11-28T21:47:18.299Z,1.81
2022-11-28T21:49:47.093Z,1.76
2022-11-28T21:52:16.891Z,1.73
2022-11-28T21:54:46.135Z,1.64
2022-11-28T21:57:15.245Z,1.63
2022-11-28T21:59:45.161Z,1.69
2022-11-28T22:02:15.581Z,1.68
2022-11-28T22:04:44.855Z,1.66
2022-11-28T22:07:14.220Z,1.60
2022-11-28T22:09:43.253Z,1.63
2022-11-28T22:12:12.602Z,1.62
2022-11-28T22:14:41.695Z,1.62
2022-11-28T22:17:10.582Z,1.65
2022-11-28T22:19:39.781Z,1.65
2022-11-28T22:22:08.781Z,1.66
2022-11-28T22:24:37.910Z,1.69
2022-11-28T22:27:07.069Z,1.71
2022-11-28T22:29:36.159Z,1.69
2022-11-28T22:32:05.906Z,1.72
2022-11-28T22:34:39.688Z,1.70
2022-11-28T22:37:09.811Z,1.73
2022-11-28T22:39:39.320Z,1.74
2022-11-28T22:42:08.613Z,1.70
2022-11-28T22:44:37.295Z,1.65
2022-11-28T22:47:06.485Z,1.67
2022-11-28T22:49:35.488Z,1.65
2022-11-28T22:52:05.405Z,1.64
2022-11-28T22:54:34.501Z,1.59
2022-11-28T22:57:04.820Z,1.61
2022-11-28T22:59:37.007Z,1.57
2022-11-28T23:02:05.893Z,1.54
2022-11-28T23:04:34.988Z,1.51
2022-11-28T23:07:04.887Z,1.46
2022-11-28T23:09:35.231Z,1.48
2022-11-28T23:12:04.400Z,1.49
2022-11-28T23:14:33.719Z,1.49
2022-11-28T23:17:02.933Z,1.48
2022-11-28T23:19:33.036Z,1.55
2022-11-28T23:22:01.744Z,1.55
2022-11-28T23:24:31.227Z,1.57
2022-11-28T23:27:00.631Z,1.54
2022-11-28T23:29:30.862Z,1.51
2022-11-28T23:31:59.570Z,1.47
2022-11-28T23:34:29.770Z,1.45
2022-11-28T23:37:00.513Z,1.41
2022-11-28T23:39:30.104Z,1.47
2022-11-28T23:42:05.858Z,1.51
2022-11-28T23:44:34.859Z,1.44
2022-11-28T23:47:03.641Z,1.48
2022-11-28T23:49:32.547Z,1.48
2022-11-28T23:52:01.540Z,1.36
2022-11-28T23:54:30.636Z,1.34
2022-11-28T23:56:59.522Z,1.32
2022-11-28T23:59:28.816Z,1.39
